sensor_id;sensor_type;location;lat;lon;timestamp;P1;durP1;ratioP1;P2;durP2;ratioP2
19434;SDS011;9853;50.848;4.108;2023-03-17T00:00:44;3.50;;;1.10;;
19434;SDS011;9853;50.848;4.108;2023-03-17T00:02:47;2.33;;;1.10;;
19434;SDS011;9853;50.848;4.108;2023-03-17T00:04:49;5.68;;;1.15;;
19434;SDS011;9853;50.848;4.108;2023-03-17T00:06:59;2.75;;;1.20;;
19434;SDS011;9853;50.848;4.108;2023-03-17T00:08:59;2.13;;;1.02;;
19434;SDS011;9853;50.848;4.108;2023-03-17T00:11:10;4.10;;;1.10;;
19434;SDS011;9853;50.848;4.108;2023-03-17T00:13:12;4.20;;;1.10;;
19434;SDS011;9853;50.848;4.108;2023-03-17T00:15:13;2.97;;;1.00;;
19434;SDS011;9853;50.848;4.108;2023-03-17T00:17:14;3.15;;;1.10;;
19434;SDS011;9853;50.848;4.108;2023-03-17T00:19:33;4.43;;;1.30;;
19434;SDS011;9853;50.848;4.108;2023-03-17T00:21:35;5.05;;;0.85;;
19434;SDS011;9853;50.848;4.108;2023-03-17T00:23:36;2.30;;;1.15;;
19434;SDS011;9853;50.848;4.108;2023-03-17T00:25:38;1.92;;;1.05;;
19434;SDS011;9853;50.848;4.108;2023-03-17T00:27:42;1.50;;;0.90;;
19434;SDS011;9853;50.848;4.108;2023-03-17T00:29:43;4.47;;;1.40;;
19434;SDS011;9853;50.848;4.108;2023-03-17T00:31:45;4.60;;;0.95;;
19434;SDS011;9853;50.848;4.108;2023-03-17T00:33:47;2.83;;;1.10;;
19434;SDS011;9853;50.848;4.108;2023-03-17T00:35:49;2.78;;;1.10;;
19434;SDS011;9853;50.848;4.108;2023-03-17T00:37:51;3.30;;;1.10;;
19434;SDS011;9853;50.848;4.108;2023-03-17T00:39:54;1.73;;;0.85;;
19434;SDS011;9853;50.848;4.108;2023-03-17T00:41:55;1.92;;;1.08;;
19434;SDS011;9853;50.848;4.108;2023-03-17T00:43:56;3.25;;;1.05;;
19434;SDS011;9853;50.848;4.108;2023-03-17T00:45:56;2.97;;;1.10;;
19434;SDS011;9853;50.848;4.108;2023-03-17T00:47:57;3.28;;;1.00;;
19434;SDS011;9853;50.848;4.108;2023-03-17T00:50:17;2.53;;;1.00;;
19434;SDS011;9853;50.848;4.108;2023-03-17T00:52:23;2.83;;;1.13;;
19434;SDS011;9853;50.848;4.108;2023-03-17T00:54:26;4.70;;;1.10;;
19434;SDS011;9853;50.848;4.108;2023-03-17T00:56:26;2.17;;;1.15;;
19434;SDS011;9853;50.848;4.108;2023-03-17T00:58:29;4.18;;;1.17;;
19434;SDS011;9853;50.848;4.108;2023-03-17T01:00:33;2.75;;;1.08;;
19434;SDS011;9853;50.848;4.108;2023-03-17T01:02:34;4.25;;;1.40;;
19434;SDS011;9853;50.848;4.108;2023-03-17T01:04:35;4.30;;;1.40;;
19434;SDS011;9853;50.848;4.108;2023-03-17T01:06:36;3.72;;;1.17;;
19434;SDS011;9853;50.848;4.108;2023-03-17T01:08:37;2.53;;;1.15;;
19434;SDS011;9853;50.848;4.108;2023-03-17T01:10:55;2.78;;;1.10;;
19434;SDS011;9853;50.848;4.108;2023-03-17T01:12:56;3.58;;;1.50;;
19434;SDS011;9853;50.848;4.108;2023-03-17T01:14:58;3.40;;;1.05;;
19434;SDS011;9853;50.848;4.108;2023-03-17T01:16:59;1.50;;;1.00;;
19434;SDS011;9853;50.848;4.108;2023-03-17T01:19:01;5.40;;;1.13;;
19434;SDS011;9853;50.848;4.108;2023-03-17T01:21:02;2.75;;;1.20;;
19434;SDS011;9853;50.848;4.108;2023-03-17T01:23:04;6.47;;;1.30;;
19434;SDS011;9853;50.848;4.108;2023-03-17T01:25:05;3.90;;;1.10;;
19434;SDS011;9853;50.848;4.108;2023-03-17T01:27:06;3.88;;;1.25;;
19434;SDS011;9853;50.848;4.108;2023-03-17T01:29:12;4.57;;;1.42;;
19434;SDS011;9853;50.848;4.108;2023-03-17T01:31:13;2.22;;;0.95;;
19434;SDS011;9853;50.848;4.108;2023-03-17T01:33:14;2.22;;;1.08;;
19434;SDS011;9853;50.848;4.108;2023-03-17T01:35:15;5.50;;;1.20;;
19434;SDS011;9853;50.848;4.108;2023-03-17T01:37:16;2.13;;;0.90;;
19434;SDS011;9853;50.848;4.108;2023-03-17T01:39:17;4.05;;;1.30;;
19434;SDS011;9853;50.848;4.108;2023-03-17T01:41:18;2.75;;;1.05;;
19434;SDS011;9853;50.848;4.108;2023-03-17T01:43:21;4.65;;;1.20;;
19434;SDS011;9853;50.848;4.108;2023-03-17T01:48:01;3.78;;;1.58;;
19434;SDS011;9853;50.848;4.108;2023-03-17T01:50:06;3.72;;;1.20;;
19434;SDS011;9853;50.848;4.108;2023-03-17T01:52:10;2.83;;;1.10;;
19434;SDS011;9853;50.848;4.108;2023-03-17T01:56:47;2.05;;;1.00;;
19434;SDS011;9853;50.848;4.108;2023-03-17T01:58:51;3.08;;;1.20;;
19434;SDS011;9853;50.848;4.108;2023-03-17T02:00:54;2.83;;;0.82;;
19434;SDS011;9853;50.848;4.108;2023-03-17T02:02:55;2.88;;;1.10;;
19434;SDS011;9853;50.848;4.108;2023-03-17T02:04:56;2.85;;;1.20;;
19434;SDS011;9853;50.848;4.108;2023-03-17T02:06:58;5.25;;;1.00;;
19434;SDS011;9853;50.848;4.108;2023-03-17T02:08:59;2.72;;;1.00;;
19434;SDS011;9853;50.848;4.108;2023-03-17T02:11:00;3.47;;;1.08;;
19434;SDS011;9853;50.848;4.108;2023-03-17T02:13:04;2.03;;;1.20;;
19434;SDS011;9853;50.848;4.108;2023-03-17T02:15:07;3.20;;;1.17;;
19434;SDS011;9853;50.848;4.108;2023-03-17T02:17:08;1.75;;;1.00;;
19434;SDS011;9853;50.848;4.108;2023-03-17T02:19:09;3.88;;;0.98;;
19434;SDS011;9853;50.848;4.108;2023-03-17T02:23:40;3.65;;;1.20;;
19434;SDS011;9853;50.848;4.108;2023-03-17T02:25:42;3.65;;;1.08;;
19434;SDS011;9853;50.848;4.108;2023-03-17T02:27:50;2.55;;;1.13;;
19434;SDS011;9853;50.848;4.108;2023-03-17T02:29:54;3.00;;;0.85;;
19434;SDS011;9853;50.848;4.108;2023-03-17T02:31:55;3.15;;;1.02;;
19434;SDS011;9853;50.848;4.108;2023-03-17T02:33:57;2.63;;;1.17;;
19434;SDS011;9853;50.848;4.108;2023-03-17T02:35:58;4.00;;;1.10;;
19434;SDS011;9853;50.848;4.108;2023-03-17T02:37:59;3.10;;;1.20;;
19434;SDS011;9853;50.848;4.108;2023-03-17T02:40:03;4.38;;;1.45;;
19434;SDS011;9853;50.848;4.108;2023-03-17T02:42:06;2.30;;;1.10;;
19434;SDS011;9853;50.848;4.108;2023-03-17T02:44:07;3.50;;;1.10;;
19434;SDS011;9853;50.848;4.108;2023-03-17T02:46:12;3.03;;;1.02;;
19434;SDS011;9853;50.848;4.108;2023-03-17T02:48:13;3.45;;;1.05;;
19434;SDS011;9853;50.848;4.108;2023-03-17T02:50:18;3.20;;;1.30;;
19434;SDS011;9853;50.848;4.108;2023-03-17T02:52:22;4.28;;;1.30;;
19434;SDS011;9853;50.848;4.108;2023-03-17T02:54:22;1.80;;;0.90;;
19434;SDS011;9853;50.848;4.108;2023-03-17T02:56:23;3.13;;;1.02;;
19434;SDS011;9853;50.848;4.108;2023-03-17T02:58:24;2.00;;;0.90;;
19434;SDS011;9853;50.848;4.108;2023-03-17T03:00:25;2.53;;;1.20;;
19434;SDS011;9853;50.848;4.108;2023-03-17T03:02:27;3.78;;;1.17;;
19434;SDS011;9853;50.848;4.108;2023-03-17T03:04:31;3.90;;;1.23;;
19434;SDS011;9853;50.848;4.108;2023-03-17T03:06:32;5.38;;;1.23;;
19434;SDS011;9853;50.848;4.108;2023-03-17T03:08:33;2.58;;;1.25;;
19434;SDS011;9853;50.848;4.108;2023-03-17T03:10:34;4.28;;;1.10;;
19434;SDS011;9853;50.848;4.108;2023-03-17T03:12:35;5.03;;;1.40;;
19434;SDS011;9853;50.848;4.108;2023-03-17T03:14:36;6.05;;;1.30;;
19434;SDS011;9853;50.848;4.108;2023-03-17T03:16:37;3.50;;;1.30;;
19434;SDS011;9853;50.848;4.108;2023-03-17T03:18:38;6.15;;;1.23;;
19434;SDS011;9853;50.848;4.108;2023-03-17T03:20:40;3.47;;;1.15;;
19434;SDS011;9853;50.848;4.108;2023-03-17T03:22:45;2.45;;;1.20;;
19434;SDS011;9853;50.848;4.108;2023-03-17T03:24:46;2.85;;;1.27;;
19434;SDS011;9853;50.848;4.108;2023-03-17T03:26:47;5.80;;;1.20;;
19434;SDS011;9853;50.848;4.108;2023-03-17T03:28:48;3.10;;;1.10;;
19434;SDS011;9853;50.848;4.108;2023-03-17T03:30:49;6.05;;;1.30;;
19434;SDS011;9853;50.848;4.108;2023-03-17T03:32:50;1.65;;;0.98;;
19434;SDS011;9853;50.848;4.108;2023-03-17T03:34:51;3.40;;;1.30;;
19434;SDS011;9853;50.848;4.108;2023-03-17T03:36:52;3.13;;;1.05;;
19434;SDS011;9853;50.848;4.108;2023-03-17T03:38:52;3.67;;;1.20;;
19434;SDS011;9853;50.848;4.108;2023-03-17T03:40:53;7.03;;;1.30;;
19434;SDS011;9853;50.848;4.108;2023-03-17T03:42:54;3.97;;;1.27;;
19434;SDS011;9853;50.848;4.108;2023-03-17T03:44:55;4.40;;;1.40;;
19434;SDS011;9853;50.848;4.108;2023-03-17T03:46:56;3.03;;;1.27;;
19434;SDS011;9853;50.848;4.108;2023-03-17T03:49:00;2.58;;;1.30;;
19434;SDS011;9853;50.848;4.108;2023-03-17T03:51:01;7.47;;;1.23;;
19434;SDS011;9853;50.848;4.108;2023-03-17T03:53:03;4.85;;;1.38;;
19434;SDS011;9853;50.848;4.108;2023-03-17T03:55:04;2.30;;;1.30;;
19434;SDS011;9853;50.848;4.108;2023-03-17T03:57:05;2.90;;;1.20;;
19434;SDS011;9853;50.848;4.108;2023-03-17T03:59:07;3.35;;;1.00;;
19434;SDS011;9853;50.848;4.108;2023-03-17T04:01:08;5.22;;;1.30;;
19434;SDS011;9853;50.848;4.108;2023-03-17T04:03:09;4.60;;;1.25;;
19434;SDS011;9853;50.848;4.108;2023-03-17T04:05:12;4.25;;;1.20;;
19434;SDS011;9853;50.848;4.108;2023-03-17T04:07:14;4.88;;;1.27;;
19434;SDS011;9853;50.848;4.108;2023-03-17T04:09:15;4.40;;;1.42;;
19434;SDS011;9853;50.848;4.108;2023-03-17T04:11:16;6.50;;;1.40;;
19434;SDS011;9853;50.848;4.108;2023-03-17T04:13:17;5.15;;;1.27;;
19434;SDS011;9853;50.848;4.108;2023-03-17T04:15:22;4.85;;;1.40;;
19434;SDS011;9853;50.848;4.108;2023-03-17T04:17:23;2.47;;;1.30;;
19434;SDS011;9853;50.848;4.108;2023-03-17T04:19:24;5.68;;;1.33;;
19434;SDS011;9853;50.848;4.108;2023-03-17T04:21:24;4.10;;;1.10;;
19434;SDS011;9853;50.848;4.108;2023-03-17T04:23:25;3.05;;;1.05;;
19434;SDS011;9853;50.848;4.108;2023-03-17T04:25:27;1.92;;;1.17;;
19434;SDS011;9853;50.848;4.108;2023-03-17T04:27:28;7.40;;;1.50;;
19434;SDS011;9853;50.848;4.108;2023-03-17T04:29:29;6.32;;;1.40;;
19434;SDS011;9853;50.848;4.108;2023-03-17T04:31:50;3.03;;;1.30;;
19434;SDS011;9853;50.848;4.108;2023-03-17T04:33:50;4.07;;;1.40;;
19434;SDS011;9853;50.848;4.108;2023-03-17T04:35:51;6.07;;;1.83;;
19434;SDS011;9853;50.848;4.108;2023-03-17T04:37:54;4.43;;;1.48;;
19434;SDS011;9853;50.848;4.108;2023-03-17T04:39:55;3.92;;;1.25;;
19434;SDS011;9853;50.848;4.108;2023-03-17T04:41:55;3.45;;;1.20;;
19434;SDS011;9853;50.848;4.108;2023-03-17T04:43:56;4.43;;;1.38;;
19434;SDS011;9853;50.848;4.108;2023-03-17T04:45:57;7.22;;;1.27;;
19434;SDS011;9853;50.848;4.108;2023-03-17T04:47:58;2.22;;;1.05;;
19434;SDS011;9853;50.848;4.108;2023-03-17T04:49:58;3.97;;;1.33;;
19434;SDS011;9853;50.848;4.108;2023-03-17T04:52:00;2.95;;;1.30;;
19434;SDS011;9853;50.848;4.108;2023-03-17T04:54:02;5.45;;;2.05;;
19434;SDS011;9853;50.848;4.108;2023-03-17T04:56:04;3.90;;;1.40;;
19434;SDS011;9853;50.848;4.108;2023-03-17T04:58:05;6.53;;;1.55;;
19434;SDS011;9853;50.848;4.108;2023-03-17T05:00:06;3.42;;;1.35;;
19434;SDS011;9853;50.848;4.108;2023-03-17T05:02:08;8.50;;;1.63;;
19434;SDS011;9853;50.848;4.108;2023-03-17T05:04:09;6.43;;;1.30;;
19434;SDS011;9853;50.848;4.108;2023-03-17T05:06:10;2.83;;;1.30;;
19434;SDS011;9853;50.848;4.108;2023-03-17T05:08:11;5.78;;;1.27;;
19434;SDS011;9853;50.848;4.108;2023-03-17T05:10:12;4.57;;;1.45;;
19434;SDS011;9853;50.848;4.108;2023-03-17T05:12:12;2.45;;;1.20;;
19434;SDS011;9853;50.848;4.108;2023-03-17T05:14:13;3.28;;;1.30;;
19434;SDS011;9853;50.848;4.108;2023-03-17T05:16:14;3.33;;;1.48;;
19434;SDS011;9853;50.848;4.108;2023-03-17T05:18:15;3.53;;;1.20;;
19434;SDS011;9853;50.848;4.108;2023-03-17T05:20:36;4.63;;;1.33;;
19434;SDS011;9853;50.848;4.108;2023-03-17T05:22:37;5.40;;;1.42;;
19434;SDS011;9853;50.848;4.108;2023-03-17T05:24:38;3.63;;;1.35;;
19434;SDS011;9853;50.848;4.108;2023-03-17T05:26:38;4.28;;;1.40;;
19434;SDS011;9853;50.848;4.108;2023-03-17T05:28:39;4.80;;;1.63;;
19434;SDS011;9853;50.848;4.108;2023-03-17T05:30:41;4.93;;;1.65;;
19434;SDS011;9853;50.848;4.108;2023-03-17T05:32:42;2.35;;;1.45;;
19434;SDS011;9853;50.848;4.108;2023-03-17T05:34:43;8.30;;;1.50;;
19434;SDS011;9853;50.848;4.108;2023-03-17T05:36:44;6.68;;;1.50;;
19434;SDS011;9853;50.848;4.108;2023-03-17T05:38:45;5.18;;;1.70;;
19434;SDS011;9853;50.848;4.108;2023-03-17T05:40:47;3.92;;;1.38;;
19434;SDS011;9853;50.848;4.108;2023-03-17T05:42:50;4.32;;;1.83;;
19434;SDS011;9853;50.848;4.108;2023-03-17T05:44:51;3.67;;;1.65;;
19434;SDS011;9853;50.848;4.108;2023-03-17T05:46:52;4.45;;;1.80;;
19434;SDS011;9853;50.848;4.108;2023-03-17T05:48:54;7.40;;;1.70;;
19434;SDS011;9853;50.848;4.108;2023-03-17T05:50:55;5.03;;;1.50;;
19434;SDS011;9853;50.848;4.108;2023-03-17T05:52:59;7.38;;;1.55;;
19434;SDS011;9853;50.848;4.108;2023-03-17T05:55:00;8.43;;;1.70;;
19434;SDS011;9853;50.848;4.108;2023-03-17T05:57:02;4.70;;;1.70;;
19434;SDS011;9853;50.848;4.108;2023-03-17T05:59:03;3.22;;;1.40;;
19434;SDS011;9853;50.848;4.108;2023-03-17T06:01:04;3.47;;;1.65;;
19434;SDS011;9853;50.848;4.108;2023-03-17T06:03:05;4.35;;;1.52;;
19434;SDS011;9853;50.848;4.108;2023-03-17T06:05:08;8.50;;;1.70;;
19434;SDS011;9853;50.848;4.108;2023-03-17T06:07:10;3.90;;;1.50;;
19434;SDS011;9853;50.848;4.108;2023-03-17T06:09:12;2.92;;;1.20;;
19434;SDS011;9853;50.848;4.108;2023-03-17T06:11:13;5.15;;;1.58;;
19434;SDS011;9853;50.848;4.108;2023-03-17T06:13:13;4.13;;;1.60;;
19434;SDS011;9853;50.848;4.108;2023-03-17T06:15:14;4.20;;;1.80;;
19434;SDS011;9853;50.848;4.108;2023-03-17T06:17:16;5.00;;;1.50;;
19434;SDS011;9853;50.848;4.108;2023-03-17T06:19:17;3.97;;;1.67;;
19434;SDS011;9853;50.848;4.108;2023-03-17T06:21:18;4.15;;;1.88;;
19434;SDS011;9853;50.848;4.108;2023-03-17T06:23:19;4.25;;;1.77;;
19434;SDS011;9853;50.848;4.108;2023-03-17T06:25:19;4.55;;;1.98;;
19434;SDS011;9853;50.848;4.108;2023-03-17T06:27:21;8.93;;;2.08;;
19434;SDS011;9853;50.848;4.108;2023-03-17T06:29:22;6.57;;;1.50;;
19434;SDS011;9853;50.848;4.108;2023-03-17T06:31:23;8.52;;;1.60;;
19434;SDS011;9853;50.848;4.108;2023-03-17T06:33:24;7.82;;;1.63;;
19434;SDS011;9853;50.848;4.108;2023-03-17T06:35:25;4.95;;;1.77;;
19434;SDS011;9853;50.848;4.108;2023-03-17T06:37:27;7.60;;;1.88;;
19434;SDS011;9853;50.848;4.108;2023-03-17T06:39:28;4.28;;;1.60;;
19434;SDS011;9853;50.848;4.108;2023-03-17T06:41:29;6.05;;;1.95;;
19434;SDS011;9853;50.848;4.108;2023-03-17T06:43:30;3.33;;;1.67;;
19434;SDS011;9853;50.848;4.108;2023-03-17T06:45:31;7.90;;;1.70;;
19434;SDS011;9853;50.848;4.108;2023-03-17T06:47:32;6.07;;;1.42;;
19434;SDS011;9853;50.848;4.108;2023-03-17T06:49:34;3.00;;;1.37;;
19434;SDS011;9853;50.848;4.108;2023-03-17T06:51:35;6.50;;;1.50;;
19434;SDS011;9853;50.848;4.108;2023-03-17T06:53:36;3.53;;;1.45;;
19434;SDS011;9853;50.848;4.108;2023-03-17T06:55:37;4.47;;;1.50;;
19434;SDS011;9853;50.848;4.108;2023-03-17T06:57:37;7.05;;;1.80;;
19434;SDS011;9853;50.848;4.108;2023-03-17T06:59:38;5.25;;;1.70;;
19434;SDS011;9853;50.848;4.108;2023-03-17T07:01:39;6.40;;;2.03;;
19434;SDS011;9853;50.848;4.108;2023-03-17T07:03:40;5.00;;;2.08;;
19434;SDS011;9853;50.848;4.108;2023-03-17T07:05:41;5.20;;;1.42;;
19434;SDS011;9853;50.848;4.108;2023-03-17T07:07:42;5.90;;;1.85;;
19434;SDS011;9853;50.848;4.108;2023-03-17T07:09:43;4.25;;;1.40;;
19434;SDS011;9853;50.848;4.108;2023-03-17T07:11:45;6.93;;;1.80;;
19434;SDS011;9853;50.848;4.108;2023-03-17T07:13:47;4.53;;;1.58;;
19434;SDS011;9853;50.848;4.108;2023-03-17T07:15:49;4.05;;;1.50;;
19434;SDS011;9853;50.848;4.108;2023-03-17T07:17:50;5.93;;;1.80;;
19434;SDS011;9853;50.848;4.108;2023-03-17T07:19:50;5.05;;;1.77;;
19434;SDS011;9853;50.848;4.108;2023-03-17T07:21:52;6.50;;;1.98;;
19434;SDS011;9853;50.848;4.108;2023-03-17T07:23:54;11.90;;;2.50;;
19434;SDS011;9853;50.848;4.108;2023-03-17T07:25:55;4.25;;;1.92;;
19434;SDS011;9853;50.848;4.108;2023-03-17T07:27:56;5.88;;;2.05;;
19434;SDS011;9853;50.848;4.108;2023-03-17T07:29:57;7.22;;;2.45;;
19434;SDS011;9853;50.848;4.108;2023-03-17T07:32:02;9.43;;;1.88;;
19434;SDS011;9853;50.848;4.108;2023-03-17T07:34:05;8.23;;;2.25;;
19434;SDS011;9853;50.848;4.108;2023-03-17T07:36:06;5.47;;;1.90;;
19434;SDS011;9853;50.848;4.108;2023-03-17T07:38:08;6.60;;;1.65;;
19434;SDS011;9853;50.848;4.108;2023-03-17T07:40:09;8.02;;;1.90;;
19434;SDS011;9853;50.848;4.108;2023-03-17T07:42:10;8.43;;;1.90;;
19434;SDS011;9853;50.848;4.108;2023-03-17T07:44:14;5.18;;;1.75;;
19434;SDS011;9853;50.848;4.108;2023-03-17T07:46:15;6.72;;;2.30;;
19434;SDS011;9853;50.848;4.108;2023-03-17T07:48:16;3.83;;;1.45;;
19434;SDS011;9853;50.848;4.108;2023-03-17T07:50:18;5.45;;;1.83;;
19434;SDS011;9853;50.848;4.108;2023-03-17T07:52:19;7.47;;;2.15;;
19434;SDS011;9853;50.848;4.108;2023-03-17T07:54:20;10.35;;;1.92;;
19434;SDS011;9853;50.848;4.108;2023-03-17T07:56:21;6.60;;;1.70;;
19434;SDS011;9853;50.848;4.108;2023-03-17T07:58:22;9.07;;;1.90;;
19434;SDS011;9853;50.848;4.108;2023-03-17T08:00:23;11.75;;;2.08;;
19434;SDS011;9853;50.848;4.108;2023-03-17T08:02:24;8.68;;;1.85;;
19434;SDS011;9853;50.848;4.108;2023-03-17T08:04:25;6.60;;;1.88;;
19434;SDS011;9853;50.848;4.108;2023-03-17T08:06:26;4.93;;;1.80;;
19434;SDS011;9853;50.848;4.108;2023-03-17T08:08:27;4.22;;;1.83;;
19434;SDS011;9853;50.848;4.108;2023-03-17T08:10:28;4.95;;;1.70;;
19434;SDS011;9853;50.848;4.108;2023-03-17T08:12:29;7.20;;;2.03;;
19434;SDS011;9853;50.848;4.108;2023-03-17T08:14:31;9.20;;;2.10;;
19434;SDS011;9853;50.848;4.108;2023-03-17T08:16:31;6.18;;;1.85;;
19434;SDS011;9853;50.848;4.108;2023-03-17T08:18:32;4.50;;;1.75;;
19434;SDS011;9853;50.848;4.108;2023-03-17T08:20:33;10.25;;;1.83;;
19434;SDS011;9853;50.848;4.108;2023-03-17T08:22:35;9.65;;;2.38;;
19434;SDS011;9853;50.848;4.108;2023-03-17T08:24:36;7.63;;;2.42;;
19434;SDS011;9853;50.848;4.108;2023-03-17T08:26:38;4.97;;;1.58;;
19434;SDS011;9853;50.848;4.108;2023-03-17T08:28:39;8.00;;;2.17;;
19434;SDS011;9853;50.848;4.108;2023-03-17T08:30:40;6.75;;;1.65;;
19434;SDS011;9853;50.848;4.108;2023-03-17T08:32:42;6.25;;;1.90;;
19434;SDS011;9853;50.848;4.108;2023-03-17T08:34:43;7.25;;;2.28;;
19434;SDS011;9853;50.848;4.108;2023-03-17T08:36:45;5.38;;;1.80;;
19434;SDS011;9853;50.848;4.108;2023-03-17T08:38:46;8.55;;;2.03;;
19434;SDS011;9853;50.848;4.108;2023-03-17T08:40:47;6.55;;;1.80;;
19434;SDS011;9853;50.848;4.108;2023-03-17T08:42:50;10.45;;;1.88;;
19434;SDS011;9853;50.848;4.108;2023-03-17T08:44:50;8.60;;;2.00;;
19434;SDS011;9853;50.848;4.108;2023-03-17T08:46:51;5.95;;;2.15;;
19434;SDS011;9853;50.848;4.108;2023-03-17T08:48:53;5.47;;;2.00;;
19434;SDS011;9853;50.848;4.108;2023-03-17T08:50:55;10.82;;;2.55;;
19434;SDS011;9853;50.848;4.108;2023-03-17T08:52:56;10.82;;;2.63;;
19434;SDS011;9853;50.848;4.108;2023-03-17T08:54:57;5.57;;;2.13;;
19434;SDS011;9853;50.848;4.108;2023-03-17T08:56:58;8.73;;;2.50;;
19434;SDS011;9853;50.848;4.108;2023-03-17T08:59:00;8.00;;;2.17;;
19434;SDS011;9853;50.848;4.108;2023-03-17T09:01:02;6.03;;;1.88;;
19434;SDS011;9853;50.848;4.108;2023-03-17T09:03:03;11.38;;;1.95;;
19434;SDS011;9853;50.848;4.108;2023-03-17T09:05:05;7.80;;;2.05;;
19434;SDS011;9853;50.848;4.108;2023-03-17T09:07:07;9.75;;;2.20;;
19434;SDS011;9853;50.848;4.108;2023-03-17T09:09:09;6.93;;;2.00;;
19434;SDS011;9853;50.848;4.108;2023-03-17T09:11:10;8.80;;;2.60;;
19434;SDS011;9853;50.848;4.108;2023-03-17T09:13:13;6.03;;;1.95;;
19434;SDS011;9853;50.848;4.108;2023-03-17T09:15:15;7.85;;;2.45;;
19434;SDS011;9853;50.848;4.108;2023-03-17T09:17:16;11.68;;;2.08;;
19434;SDS011;9853;50.848;4.108;2023-03-17T09:19:17;5.47;;;2.10;;
19434;SDS011;9853;50.848;4.108;2023-03-17T09:21:18;5.47;;;2.10;;
19434;SDS011;9853;50.848;4.108;2023-03-17T09:23:20;4.05;;;1.83;;
19434;SDS011;9853;50.848;4.108;2023-03-17T09:25:22;5.72;;;2.08;;
19434;SDS011;9853;50.848;4.108;2023-03-17T09:27:23;10.25;;;2.13;;
19434;SDS011;9853;50.848;4.108;2023-03-17T09:29:24;7.45;;;2.47;;
19434;SDS011;9853;50.848;4.108;2023-03-17T09:31:25;5.25;;;2.15;;
19434;SDS011;9853;50.848;4.108;2023-03-17T09:33:26;9.73;;;2.17;;
19434;SDS011;9853;50.848;4.108;2023-03-17T09:35:27;7.32;;;2.33;;
19434;SDS011;9853;50.848;4.108;2023-03-17T09:37:30;8.70;;;2.10;;
19434;SDS011;9853;50.848;4.108;2023-03-17T09:39:31;9.93;;;2.47;;
19434;SDS011;9853;50.848;4.108;2023-03-17T09:43:55;12.18;;;2.15;;
19434;SDS011;9853;50.848;4.108;2023-03-17T09:51:08;8.02;;;2.80;;
19434;SDS011;9853;50.848;4.108;2023-03-17T09:53:17;6.30;;;3.70;;
19434;SDS011;9853;50.848;4.108;2023-03-17T09:55:38;12.82;;;3.20;;
19434;SDS011;9853;50.848;4.108;2023-03-17T09:57:38;8.35;;;2.72;;
19434;SDS011;9853;50.848;4.108;2023-03-17T09:59:43;7.90;;;2.90;;
19434;SDS011;9853;50.848;4.108;2023-03-17T10:01:47;7.28;;;2.40;;
19434;SDS011;9853;50.848;4.108;2023-03-17T10:03:49;11.35;;;2.42;;
19434;SDS011;9853;50.848;4.108;2023-03-17T10:05:50;6.82;;;2.50;;
19434;SDS011;9853;50.848;4.108;2023-03-17T10:07:57;6.97;;;2.13;;
19434;SDS011;9853;50.848;4.108;2023-03-17T10:10:39;7.35;;;2.58;;
19434;SDS011;9853;50.848;4.108;2023-03-17T10:13:06;5.75;;;2.08;;
19434;SDS011;9853;50.848;4.108;2023-03-17T10:15:34;6.45;;;2.30;;
19434;SDS011;9853;50.848;4.108;2023-03-17T10:17:44;6.20;;;2.38;;
19434;SDS011;9853;50.848;4.108;2023-03-17T10:19:51;7.60;;;2.10;;
19434;SDS011;9853;50.848;4.108;2023-03-17T10:22:04;6.78;;;2.17;;
19434;SDS011;9853;50.848;4.108;2023-03-17T10:24:15;5.70;;;2.33;;
19434;SDS011;9853;50.848;4.108;2023-03-17T10:26:58;4.18;;;1.80;;
19434;SDS011;9853;50.848;4.108;2023-03-17T10:28:43;11.90;;;2.17;;
19434;SDS011;9853;50.848;4.108;2023-03-17T10:30:44;8.57;;;2.38;;
19434;SDS011;9853;50.848;4.108;2023-03-17T10:32:44;5.07;;;2.30;;
19434;SDS011;9853;50.848;4.108;2023-03-17T10:34:45;7.82;;;2.30;;
19434;SDS011;9853;50.848;4.108;2023-03-17T10:36:49;11.00;;;2.38;;
19434;SDS011;9853;50.848;4.108;2023-03-17T10:38:53;8.90;;;2.35;;
19434;SDS011;9853;50.848;4.108;2023-03-17T10:40:58;6.18;;;2.17;;
19434;SDS011;9853;50.848;4.108;2023-03-17T10:43:00;12.20;;;3.33;;
19434;SDS011;9853;50.848;4.108;2023-03-17T10:47:31;7.80;;;2.90;;
19434;SDS011;9853;50.848;4.108;2023-03-17T10:49:35;16.98;;;3.63;;
19434;SDS011;9853;50.848;4.108;2023-03-17T10:51:36;13.45;;;3.97;;
19434;SDS011;9853;50.848;4.108;2023-03-17T10:53:40;5.85;;;2.47;;
19434;SDS011;9853;50.848;4.108;2023-03-17T10:55:47;13.10;;;2.75;;
19434;SDS011;9853;50.848;4.108;2023-03-17T10:57:51;8.65;;;2.55;;
19434;SDS011;9853;50.848;4.108;2023-03-17T10:59:58;9.18;;;2.47;;
19434;SDS011;9853;50.848;4.108;2023-03-17T11:02:05;9.75;;;2.40;;
19434;SDS011;9853;50.848;4.108;2023-03-17T11:06:37;10.80;;;2.50;;
19434;SDS011;9853;50.848;4.108;2023-03-17T11:08:45;13.30;;;2.50;;
19434;SDS011;9853;50.848;4.108;2023-03-17T11:10:53;7.68;;;2.65;;
19434;SDS011;9853;50.848;4.108;2023-03-17T11:12:59;10.15;;;2.50;;
19434;SDS011;9853;50.848;4.108;2023-03-17T11:15:02;7.65;;;2.40;;
19434;SDS011;9853;50.848;4.108;2023-03-17T11:28:23;8.77;;;2.58;;
19434;SDS011;9853;50.848;4.108;2023-03-17T11:30:31;6.65;;;2.65;;
19434;SDS011;9853;50.848;4.108;2023-03-17T11:32:37;7.90;;;2.42;;
19434;SDS011;9853;50.848;4.108;2023-03-17T11:34:46;8.88;;;2.72;;
19434;SDS011;9853;50.848;4.108;2023-03-17T11:37:15;8.75;;;2.38;;
19434;SDS011;9853;50.848;4.108;2023-03-17T11:39:35;60.75;;;8.68;;
19434;SDS011;9853;50.848;4.108;2023-03-17T11:42:05;12.00;;;3.28;;
19434;SDS011;9853;50.848;4.108;2023-03-17T11:47:01;9.52;;;2.38;;
19434;SDS011;9853;50.848;4.108;2023-03-17T11:49:27;7.97;;;2.55;;
19434;SDS011;9853;50.848;4.108;2023-03-17T11:51:49;8.70;;;3.05;;
19434;SDS011;9853;50.848;4.108;2023-03-17T11:56:04;9.50;;;2.70;;
19434;SDS011;9853;50.848;4.108;2023-03-17T12:00:34;17.13;;;3.10;;
19434;SDS011;9853;50.848;4.108;2023-03-17T12:02:46;7.80;;;2.47;;
19434;SDS011;9853;50.848;4.108;2023-03-17T12:04:57;9.82;;;2.35;;
19434;SDS011;9853;50.848;4.108;2023-03-17T12:07:25;7.68;;;2.20;;
19434;SDS011;9853;50.848;4.108;2023-03-17T12:09:45;6.53;;;2.45;;
19434;SDS011;9853;50.848;4.108;2023-03-17T12:11:56;8.68;;;2.13;;
19434;SDS011;9853;50.848;4.108;2023-03-17T12:14:01;12.95;;;2.42;;
19434;SDS011;9853;50.848;4.108;2023-03-17T12:16:12;11.88;;;2.15;;
19434;SDS011;9853;50.848;4.108;2023-03-17T12:18:38;6.68;;;2.30;;
19434;SDS011;9853;50.848;4.108;2023-03-17T12:25:02;10.18;;;2.15;;
19434;SDS011;9853;50.848;4.108;2023-03-17T12:27:18;4.22;;;1.70;;
19434;SDS011;9853;50.848;4.108;2023-03-17T12:29:26;8.20;;;1.90;;
19434;SDS011;9853;50.848;4.108;2023-03-17T12:31:54;11.45;;;2.40;;
19434;SDS011;9853;50.848;4.108;2023-03-17T12:36:42;8.30;;;1.95;;
19434;SDS011;9853;50.848;4.108;2023-03-17T12:47:50;7.05;;;2.30;;
19434;SDS011;9853;50.848;4.108;2023-03-17T12:54:52;5.07;;;1.92;;
19434;SDS011;9853;50.848;4.108;2023-03-17T12:56:58;7.22;;;2.22;;
19434;SDS011;9853;50.848;4.108;2023-03-17T12:59:07;4.53;;;1.75;;
19434;SDS011;9853;50.848;4.108;2023-03-17T13:01:15;8.93;;;1.83;;
19434;SDS011;9853;50.848;4.108;2023-03-17T13:03:44;7.75;;;2.20;;
19434;SDS011;9853;50.848;4.108;2023-03-17T13:06:00;9.35;;;1.98;;
19434;SDS011;9853;50.848;4.108;2023-03-17T13:08:08;7.88;;;2.00;;
19434;SDS011;9853;50.848;4.108;2023-03-17T13:10:19;8.32;;;1.70;;
19434;SDS011;9853;50.848;4.108;2023-03-17T13:16:45;4.57;;;1.58;;
19434;SDS011;9853;50.848;4.108;2023-03-17T13:18:47;8.27;;;1.85;;
19434;SDS011;9853;50.848;4.108;2023-03-17T13:23:01;8.48;;;2.05;;
19434;SDS011;9853;50.848;4.108;2023-03-17T13:25:12;7.13;;;1.75;;
19434;SDS011;9853;50.848;4.108;2023-03-17T13:31:35;12.27;;;1.63;;
19434;SDS011;9853;50.848;4.108;2023-03-17T13:33:42;7.90;;;1.70;;
19434;SDS011;9853;50.848;4.108;2023-03-17T13:38:12;8.38;;;1.85;;
19434;SDS011;9853;50.848;4.108;2023-03-17T13:45:51;12.70;;;2.30;;
19434;SDS011;9853;50.848;4.108;2023-03-17T13:48:20;5.40;;;1.92;;
19434;SDS011;9853;50.848;4.108;2023-03-17T13:50:46;8.13;;;2.55;;
19434;SDS011;9853;50.848;4.108;2023-03-17T13:53:14;13.10;;;2.08;;
19434;SDS011;9853;50.848;4.108;2023-03-17T13:55:28;4.82;;;2.03;;